Time;durP1;ratioP1;P1;durP2;ratioP2;P2;SDS_P1;SDS_P2;PMS_P1;PMS_P2;Temp;Humidity;BMP_temperature;BMP_pressure;BME280_temperature;BME280_humidity;BME280_pressure;Samples;Min_cycle;Max_cycle;Signal;HPM_P1;HPM_P2
2021/01/18 00:00:11;;;;;;;12.73;10.23;;;;;;;-0.60;100.00;96240.75;1031871;28;20022;-64
2021/01/18 00:00:42;;;;;;;12.82;10.23;;;;;;;-0.55;100.00;96253.09;1031492;28;20050;-63
2021/01/18 00:01:12;;;;;;;10.80;9.50;;;;;;;-0.55;100.00;96253.88;1024781;28;20538;-63
2021/01/18 00:01:43;;;;;;;12.97;11.03;;;;;;;-0.62;100.00;96242.72;1023867;29;20069;-63
2021/01/18 00:02:13;;;;;;;12.80;10.60;;;;;;;-0.58;100.00;96250.88;1023763;28;20019;-64
2021/01/18 00:02:44;;;;;;;13.03;10.40;;;;;;;-0.61;100.00;96249.44;1030122;28;20029;-64
2021/01/18 00:03:14;;;;;;;12.10;10.40;;;;;;;-0.61;100.00;96256.38;1023135;28;20024;-64
2021/01/18 00:03:45;;;;;;;12.03;10.23;;;;;;;-0.60;100.00;96251.06;1027129;28;20023;-63
2021/01/18 00:04:15;;;;;;;12.80;10.07;;;;;;;-0.63;100.00;96245.47;1034833;28;20010;-65
2021/01/18 00:04:46;;;;;;;11.53;10.33;;;;;;;-0.62;100.00;96252.22;1036445;28;20017;-62
2021/01/18 00:05:16;;;;;;;12.83;10.43;;;;;;;-0.72;100.00;96237.81;1043467;28;20013;-63
2021/01/18 00:05:47;;;;;;;12.17;10.30;;;;;;;-0.64;100.00;96249.00;1043758;28;20726;-63
2021/01/18 00:06:17;;;;;;;13.23;10.90;;;;;;;-0.66;100.00;96245.84;1038901;28;20040;-64
2021/01/18 00:06:48;;;;;;;13.13;10.67;;;;;;;-0.65;100.00;96255.16;1039629;28;20535;-64
2021/01/18 00:07:18;;;;;;;12.63;10.53;;;;;;;-0.66;100.00;96251.00;1034830;28;20048;-64
2021/01/18 00:07:50;;;;;;;12.57;10.67;;;;;;;-0.65;100.00;96255.94;1035068;28;20403;-63
2021/01/18 00:08:20;;;;;;;13.45;10.60;;;;;;;-0.65;100.00;96255.94;1031590;28;20025;-63
2021/01/18 00:08:51;;;;;;;12.80;10.57;;;;;;;-0.65;100.00;96252.56;1035177;28;20026;-64
2021/01/18 00:09:21;;;;;;;13.53;11.10;;;;;;;-0.65;100.00;96247.41;1039164;28;20025;-64
2021/01/18 00:09:52;;;;;;;13.53;10.20;;;;;;;-0.66;100.00;96248.41;1039645;28;20105;-63
2021/01/18 00:10:23;;;;;;;13.17;10.73;;;;;;;-0.73;100.00;96240.59;1043238;28;20048;-63
2021/01/18 00:10:54;;;;;;;13.57;10.55;;;;;;;-0.64;100.00;96244.66;1038995;28;20027;-64
2021/01/18 00:11:24;;;;;;;13.57;10.73;;;;;;;-0.71;100.00;96236.84;1035057;28;20431;-64
2021/01/18 00:11:55;;;;;;;14.40;11.20;;;;;;;-0.71;100.00;96243.78;1027017;28;20023;-63
2021/01/18 00:12:25;;;;;;;13.47;10.67;;;;;;;-0.63;100.00;96255.78;1027056;28;20073;-63
2021/01/18 00:12:56;;;;;;;13.47;10.90;;;;;;;-0.63;100.00;96250.63;1027006;28;20088;-63
2021/01/18 00:13:26;;;;;;;13.40;10.77;;;;;;;-0.64;100.00;96249.00;1023204;28;20389;-62
2021/01/18 00:13:57;;;;;;;11.70;9.87;;;;;;;-0.75;100.00;96238.19;1027708;28;20047;-63
2021/01/18 00:14:27;;;;;;;12.03;9.87;;;;;;;-0.65;100.00;96252.56;1031012;28;20069;-63
2021/01/18 00:14:58;;;;;;;12.50;10.60;;;;;;;-0.63;100.00;96256.56;1030443;28;20102;-63
2021/01/18 00:15:28;;;;;;;12.67;10.47;;;;;;;-0.59;100.00;96254.44;1031252;28;20022;-63
2021/01/18 00:15:59;;;;;;;12.80;10.67;;;;;;;-0.63;100.00;96253.22;1035233;28;20582;-63
2021/01/18 00:16:29;;;;;;;12.43;10.07;;;;;;;-0.62;100.00;96257.38;1039526;28;20021;-63
2021/01/18 00:17:00;;;;;;;13.33;10.57;;;;;;;-0.62;100.00;96262.53;1039114;28;20034;-63
2021/01/18 00:17:34;;;;;;;10.75;9.13;;;;;;;-0.67;100.00;96244.22;1034751;28;20092;-62
2021/01/18 00:18:04;;;;;;;11.80;9.93;;;;;;;-0.61;100.00;96253.81;1031272;28;20030;-63
2021/01/18 00:18:35;;;;;;;11.57;9.80;;;;;;;-0.61;100.00;96253.81;1031078;28;20033;-63
2021/01/18 00:19:05;;;;;;;12.57;10.00;;;;;;;-0.61;100.00;96259.75;1030946;28;20034;-63
2021/01/18 00:19:36;;;;;;;12.00;9.77;;;;;;;-0.61;100.00;96264.13;1031319;28;20019;-63
2021/01/18 00:20:07;;;;;;;12.43;10.43;;;;;;;-0.61;100.00;96253.81;1031037;28;20684;-63
2021/01/18 00:20:37;;;;;;;12.40;9.98;;;;;;;-0.63;100.00;96260.94;1027398;28;20038;-63
2021/01/18 00:21:08;;;;;;;14.03;10.07;;;;;;;-0.71;100.00;96243.78;1027064;28;20027;-64
2021/01/18 00:21:45;;;;;;;11.90;10.27;;;;;;;-0.59;100.00;96269.91;1035310;28;20026;-64
2021/01/18 00:22:16;;;;;;;13.45;10.70;;;;;;;-0.60;100.00;96261.38;1038424;28;20021;-63
2021/01/18 00:22:47;;;;;;;12.50;10.23;;;;;;;-0.61;100.00;96256.38;1034815;28;20022;-63
2021/01/18 00:23:17;;;;;;;14.13;10.63;;;;;;;-0.61;100.00;96266.69;1028168;28;20038;-63
2021/01/18 00:23:47;;;;;;;13.23;10.47;;;;;;;-0.62;100.00;96260.75;1027105;28;20082;-64
2021/01/18 00:24:18;;;;;;;16.53;10.80;;;;;;;-0.59;100.00;96262.16;1030820;28;20077;-64
2021/01/18 00:24:48;;;;;;;11.80;10.20;;;;;;;-0.59;100.00;96265.53;1026915;28;20034;-63
2021/01/18 00:25:23;;;;;;;13.20;10.70;;;;;;;-0.60;100.00;96265.75;1030651;28;20573;-63
2021/01/18 00:25:53;;;;;;;12.95;10.25;;;;;;;-0.59;100.00;96262.16;1031107;28;20033;-64
2021/01/18 00:26:24;;;;;;;11.47;9.57;;;;;;;-0.58;100.00;96263.75;1027023;28;20038;-64
2021/01/18 00:26:54;;;;;;;13.10;10.70;;;;;;;-0.58;100.00;96259.41;1027656;28;20019;-64
2021/01/18 00:27:25;;;;;;;11.83;10.10;;;;;;;-0.59;100.00;96262.97;1031010;28;20062;-63
2021/01/18 00:27:55;;;;;;;12.43;10.03;;;;;;;-0.59;100.00;96257.81;1027006;28;20022;-65
2021/01/18 00:28:26;;;;;;;14.13;11.10;;;;;;;-0.54;100.00;96259.84;1030997;28;20018;-63
2021/01/18 00:28:56;;;;;;;12.73;10.67;;;;;;;-0.53;100.00;96262.25;1031281;28;20096;-63
2021/01/18 00:29:26;;;;;;;12.00;9.27;;;;;;;-0.51;100.00;96260.28;1038739;28;20021;-63
2021/01/18 00:29:57;;;;;;;13.00;10.03;;;;;;;-0.52;100.00;96260.47;1043281;28;20033;-63
2021/01/18 00:30:27;;;;;;;11.93;10.03;;;;;;;-0.53;100.00;96264.03;1043474;28;20363;-64
2021/01/18 00:30:59;;;;;;;12.00;10.30;;;;;;;-0.50;100.00;96258.53;1043188;28;20071;-64
2021/01/18 00:31:29;;;;;;;11.23;9.85;;;;;;;-0.53;100.00;96262.25;1039172;28;20079;-63
2021/01/18 00:32:00;;;;;;;13.47;10.23;;;;;;;-0.55;100.00;96264.19;1034981;28;20549;-63
2021/01/18 00:32:30;;;;;;;12.50;10.03;;;;;;;-0.54;100.00;96265.00;1035105;28;20064;-64
2021/01/18 00:33:01;;;;;;;13.13;10.47;;;;;;;-0.52;100.00;96270.78;1035443;28;20030;-64
2021/01/18 00:33:32;;;;;;;13.17;10.17;;;;;;;-0.50;100.00;96266.25;1038874;28;20535;-64
2021/01/18 00:34:02;;;;;;;13.20;11.13;;;;;;;-0.50;100.00;96268.84;1039135;28;20025;-64
2021/01/18 00:34:33;;;;;;;12.13;10.60;;;;;;;-0.52;100.00;96268.19;1039259;28;20025;-64
2021/01/18 00:35:07;;;;;;;14.33;11.23;;;;;;;-0.50;100.00;96266.25;1030442;28;20545;-64
2021/01/18 00:35:40;;;;;;;11.77;10.15;;;;;;;-0.51;100.00;96268.00;1027838;28;20847;-64
2021/01/18 00:36:10;;;;;;;13.97;10.53;;;;;;;-0.50;100.00;96261.91;1030924;28;20054;-63
2021/01/18 00:36:47;;;;;;;13.43;10.60;;;;;;;-0.50;100.00;96267.06;1027857;28;20031;-64
2021/01/18 00:37:18;;;;;;;13.20;10.75;;;;;;;-0.59;100.00;96251.88;1032105;28;20030;-64
2021/01/18 00:37:50;;;;;;;13.10;10.03;;;;;;;-0.48;100.00;96269.44;1031293;28;20077;-63
2021/01/18 00:38:20;;;;;;;14.63;11.43;;;;;;;-0.50;100.00;96263.69;1030553;28;20046;-64
2021/01/18 00:38:51;;;;;;;14.77;11.17;;;;;;;-0.50;100.00;96271.41;1031686;28;20463;-63
2021/01/18 00:39:21;;;;;;;13.20;10.47;;;;;;;-0.50;100.00;96263.69;1036630;28;20053;-63
2021/01/18 00:39:52;;;;;;;15.17;11.67;;;;;;;-0.54;100.00;96257.25;1039485;28;20029;-64
2021/01/18 00:40:23;;;;;;;14.37;11.20;;;;;;;-0.51;100.00;96259.47;1040202;28;20474;-64
2021/01/18 00:40:54;;;;;;;13.15;11.00;;;;;;;-0.52;100.00;96265.63;1040034;28;20064;-63
2021/01/18 00:41:24;;;;;;;11.73;9.83;;;;;;;-0.49;100.00;96267.84;1036096;28;20029;-65
2021/01/18 00:41:55;;;;;;;12.53;10.40;;;;;;;-0.53;100.00;96262.25;1036187;28;20022;-64
2021/01/18 00:42:25;;;;;;;14.27;10.20;;;;;;;-0.51;100.00;96257.69;1036511;28;20035;-63
2021/01/18 00:42:56;;;;;;;12.43;10.40;;;;;;;-0.49;100.00;96266.06;1040121;28;20025;-64
2021/01/18 00:43:29;;;;;;;11.60;9.65;;;;;;;-0.49;100.00;96266.06;1039040;28;20026;-64
2021/01/18 00:44:00;;;;;;;12.32;10.30;;;;;;;-0.50;100.00;96277.38;1039025;28;20034;-65
2021/01/18 00:44:30;;;;;;;12.17;9.93;;;;;;;-0.52;100.00;96263.84;1035631;28;20522;-64
2021/01/18 00:45:01;;;;;;;14.33;10.13;;;;;;;-0.54;100.00;96265.81;1039465;28;20030;-64
2021/01/18 00:45:31;;;;;;;12.57;10.00;;;;;;;-0.50;100.00;96269.63;1036138;28;20040;-64
2021/01/18 00:46:02;;;;;;;11.77;9.50;;;;;;;-0.52;100.00;96263.06;1039139;28;20025;-65
2021/01/18 00:46:33;;;;;;;13.33;10.30;;;;;;;-0.49;100.00;96263.47;1031725;28;20037;-64
2021/01/18 00:47:04;;;;;;;15.30;10.90;;;;;;;-0.52;100.00;96263.06;1037043;28;21215;-64
2021/01/18 00:47:39;;;;;;;13.50;10.82;;;;;;;-0.45;100.00;96268.28;1036202;28;20014;-64
2021/01/18 00:48:10;;;;;;;12.88;10.35;;;;;;;-0.49;100.00;96281.53;1036704;28;20061;-65
2021/01/18 00:48:40;;;;;;;11.47;9.83;;;;;;;-0.51;100.00;96270.59;1037989;28;20018;-64
2021/01/18 00:49:11;;;;;;;14.70;10.88;;;;;;;-0.54;100.00;96272.72;1037321;28;20117;-62
2021/01/18 00:49:42;;;;;;;12.47;10.27;;;;;;;-0.49;100.00;96278.16;1039926;28;20032;-62
2021/01/18 00:50:17;;;;;;;12.27;10.40;;;;;;;-0.50;100.00;96271.41;1030775;28;20022;-63
2021/01/18 00:50:47;;;;;;;13.85;10.43;;;;;;;-0.50;100.00;96268.84;1027334;28;20504;-64
2021/01/18 00:51:18;;;;;;;12.37;10.50;;;;;;;-0.51;100.00;96275.75;1031258;28;20050;-62
2021/01/18 00:51:48;;;;;;;16.57;10.87;;;;;;;-0.50;100.00;96271.41;1031556;28;20385;-63
2021/01/18 00:52:19;;;;;;;16.43;12.27;;;;;;;-0.59;100.00;96257.03;1030998;28;20028;-63
2021/01/18 00:52:50;;;;;;;13.17;10.87;;;;;;;-0.54;100.00;96270.16;1023052;29;20036;-63
2021/01/18 00:53:21;;;;;;;14.02;11.40;;;;;;;-0.50;100.00;96284.31;1023125;28;20162;-65
2021/01/18 00:53:51;;;;;;;13.27;10.57;;;;;;;-0.54;100.00;96275.31;1025368;28;20030;-62
2021/01/18 00:54:22;;;;;;;11.97;9.70;;;;;;;-0.49;100.00;96278.16;1018982;29;20024;-62
2021/01/18 00:54:52;;;;;;;14.17;11.77;;;;;;;-0.50;100.00;96279.16;1018977;29;20028;-62
2021/01/18 00:55:23;;;;;;;14.50;11.47;;;;;;;-0.54;100.00;96281.28;1023833;28;20473;-62
2021/01/18 00:55:53;;;;;;;13.23;11.43;;;;;;;-0.51;100.00;96274.94;1023132;28;20031;-63
2021/01/18 00:56:24;;;;;;;12.80;10.77;;;;;;;-0.49;100.00;96281.53;1031101;28;20022;-63
2021/01/18 00:56:54;;;;;;;12.93;10.93;;;;;;;-0.47;100.00;96281.34;1023639;29;20028;-63
2021/01/18 00:57:34;;;;;;;12.60;10.27;;;;;;;-0.51;100.00;96270.59;1027217;28;20428;-63
2021/01/18 00:58:04;;;;;;;14.88;11.77;;;;;;;-0.47;100.00;96276.19;1024198;28;20057;-63
2021/01/18 00:58:35;;;;;;;16.80;11.53;;;;;;;-0.49;100.00;96278.94;1021389;28;20034;-63
2021/01/18 00:59:05;;;;;;;15.00;12.00;;;;;;;-0.50;100.00;96279.94;1034366;28;20018;-63
2021/01/18 00:59:36;;;;;;;15.53;11.63;;;;;;;-0.48;100.00;96280.53;1034812;28;20415;-62
2021/01/18 01:00:11;;;;;;;14.20;11.33;;;;;;;-0.48;100.00;96282.31;1035593;28;20022;-62
2021/01/18 01:00:41;;;;;;;14.73;10.90;;;;;;;-0.50;100.00;96281.72;1031970;28;20558;-63
2021/01/18 01:01:12;;;;;;;15.57;12.17;;;;;;;-0.51;100.00;96280.09;1029353;28;20058;-62
2021/01/18 01:01:42;;;;;;;15.53;11.40;;;;;;;-0.48;100.00;96282.31;1036216;28;20062;-63
2021/01/18 01:02:13;;;;;;;17.37;12.40;;;;;;;-0.48;100.00;96279.75;1031654;28;20122;-63
2021/01/18 01:02:45;;;;;;;15.50;11.77;;;;;;;-0.48;100.00;96279.75;1035924;28;20041;-64
2021/01/18 01:03:15;;;;;;;15.55;11.70;;;;;;;-0.46;100.00;96282.94;1036456;28;20025;-63
2021/01/18 01:03:46;;;;;;;16.53;12.50;;;;;;;-0.54;100.00;96275.31;1032243;28;20034;-62
2021/01/18 01:04:16;;;;;;;15.10;11.63;;;;;;;-0.46;100.00;96282.94;1040073;28;20089;-63
2021/01/18 01:04:47;;;;;;;13.10;10.73;;;;;;;-0.46;100.00;96282.94;1036578;28;20023;-65
2021/01/18 01:05:22;;;;;;;14.90;10.97;;;;;;;-0.48;100.00;96280.53;1036953;28;20011;-63
2021/01/18 01:05:52;;;;;;;14.93;11.30;;;;;;;-0.49;100.00;96283.31;1032573;28;20011;-64
2021/01/18 01:06:23;;;;;;;14.47;11.87;;;;;;;-0.43;100.00;96286.97;1033647;28;20058;-66
2021/01/18 01:06:53;;;;;;;14.23;11.73;;;;;;;-0.44;100.00;96280.97;1037299;28;20018;-64
2021/01/18 01:07:24;;;;;;;13.03;10.80;;;;;;;-0.44;100.00;96290.50;1040528;28;20033;-63
2021/01/18 01:07:56;;;;;;;15.27;11.43;;;;;;;-0.51;100.00;96277.53;1049078;28;20021;-65
2021/01/18 01:08:26;;;;;;;16.63;12.43;;;;;;;-0.42;100.00;96280.81;1046507;28;20029;-64
2021/01/18 01:08:56;;;;;;;14.47;10.67;;;;;;;-0.42;100.00;96284.19;1042817;28;20033;-63
2021/01/18 01:09:27;;;;;;;14.47;12.03;;;;;;;-0.52;100.00;96274.16;1039913;28;20033;-62
2021/01/18 01:09:57;;;;;;;15.57;11.63;;;;;;;-0.43;100.00;96284.38;1036015;28;20426;-64
2021/01/18 01:10:30;;;;;;;16.23;12.93;;;;;;;-0.46;100.00;96279.59;1032016;28;20046;-63
2021/01/18 01:11:00;;;;;;;15.93;12.15;;;;;;;-0.49;100.00;96268.63;1035824;28;20033;-63
2021/01/18 01:11:31;;;;;;;14.87;11.67;;;;;;;-0.47;100.00;96283.91;1028481;28;20086;-63
2021/01/18 01:12:02;;;;;;;14.47;11.97;;;;;;;-0.43;100.00;96282.59;1028099;28;20031;-64
2021/01/18 01:12:32;;;;;;;18.50;12.83;;;;;;;-0.45;100.00;96279.38;1032294;28;20093;-63
2021/01/18 01:13:04;;;;;;;18.67;12.10;;;;;;;-0.45;100.00;96278.59;1035981;28;20426;-63
2021/01/18 01:13:35;;;;;;;14.23;11.13;;;;;;;-0.46;100.00;96277.00;1044355;28;20482;-65
2021/01/18 01:14:05;;;;;;;15.53;12.57;;;;;;;-0.45;100.00;96273.44;1046993;28;20064;-63
2021/01/18 01:14:36;;;;;;;15.33;12.07;;;;;;;-0.44;100.00;96278.41;1043654;28;20351;-62
2021/01/18 01:15:08;;;;;;;16.13;12.33;;;;;;;-0.46;100.00;96272.66;1039128;28;20034;-63
2021/01/18 01:15:39;;;;;;;14.52;11.43;;;;;;;-0.41;100.00;96275.47;1031559;28;20041;-63
2021/01/18 01:16:09;;;;;;;15.27;11.53;;;;;;;-0.44;100.00;96270.66;1031838;28;20061;-63
2021/01/18 01:16:42;;;;;;;15.13;12.07;;;;;;;-0.45;100.00;96270.88;1032368;28;20033;-63
2021/01/18 01:17:12;;;;;;;15.25;12.48;;;;;;;-0.42;100.00;96275.66;1036681;28;20033;-63
2021/01/18 01:17:43;;;;;;;15.57;12.70;;;;;;;-0.55;100.00;96266.78;1041056;28;20025;-62
2021/01/18 01:18:14;;;;;;;13.87;11.20;;;;;;;-0.45;100.00;96273.44;1040305;28;20049;-63
2021/01/18 01:18:44;;;;;;;15.03;11.80;;;;;;;-0.42;100.00;96275.66;1039889;28;20057;-62
2021/01/18 01:19:15;;;;;;;16.97;11.93;;;;;;;-0.47;100.00;96276.19;1040053;28;20029;-63
2021/01/18 01:19:45;;;;;;;17.57;13.37;;;;;;;-0.48;100.00;96277.97;1036292;28;20018;-63
2021/01/18 01:20:16;;;;;;;15.77;12.20;;;;;;;-0.49;100.00;96262.69;1040280;28;20028;-62
2021/01/18 01:20:47;;;;;;;15.30;11.38;;;;;;;-0.43;100.00;96277.44;1036754;28;20133;-62
2021/01/18 01:21:17;;;;;;;14.20;11.63;;;;;;;-0.44;100.00;96272.44;1031964;28;20046;-62
2021/01/18 01:21:49;;;;;;;16.10;12.20;;;;;;;-0.45;100.00;96274.22;1031934;28;20026;-62
2021/01/18 01:22:19;;;;;;;15.98;12.05;;;;;;;-0.40;100.00;96281.41;1036166;28;20045;-63
2021/01/18 01:22:50;;;;;;;15.17;12.37;;;;;;;-0.40;100.00;96276.25;1035770;28;20439;-63
2021/01/18 01:23:29;;;;;;;15.73;11.27;;;;;;;-0.41;100.00;96275.47;1040209;28;20536;-63
2021/01/18 01:24:03;;;;;;;16.95;12.52;;;;;;;-0.42;100.00;96281.59;1039893;28;20029;-62
2021/01/18 01:24:34;;;;;;;15.18;12.02;;;;;;;-0.50;100.00;96263.69;1039160;28;20510;-61
2021/01/18 01:25:06;;;;;;;15.30;11.90;;;;;;;-0.44;100.00;96280.19;1033640;28;20060;-63
2021/01/18 01:25:36;;;;;;;15.70;12.32;;;;;;;-0.48;100.00;96264.28;1032844;28;20109;-64
2021/01/18 01:26:07;;;;;;;15.83;11.83;;;;;;;-0.41;100.00;96272.88;1026385;28;20111;-64
2021/01/18 01:26:37;;;;;;;13.93;11.50;;;;;;;-0.40;100.00;96277.09;1032126;28;20073;-64
2021/01/18 01:27:08;;;;;;;16.27;12.13;;;;;;;-0.41;100.00;96274.66;1027725;28;20026;-64
2021/01/18 01:27:39;;;;;;;17.73;13.20;;;;;;;-0.42;100.00;96273.88;1027762;28;20030;-63
2021/01/18 01:28:09;;;;;;;16.17;12.57;;;;;;;-0.43;100.00;96274.88;1027620;28;20118;-64
2021/01/18 01:28:40;;;;;;;16.07;12.50;;;;;;;-0.42;100.00;96273.88;1027796;28;20034;-64
2021/01/18 01:29:10;;;;;;;15.43;12.40;;;;;;;-0.40;100.00;96282.25;1032039;28;20029;-63
2021/01/18 01:29:41;;;;;;;16.43;11.83;;;;;;;-0.41;100.00;96285.78;1035562;28;20100;-63
2021/01/18 01:30:16;;;;;;;17.37;13.20;;;;;;;-0.43;100.00;96272.28;1040006;28;20640;-63
2021/01/18 01:30:46;;;;;;;16.52;12.90;;;;;;;-0.44;100.00;96272.44;1039816;28;20025;-64
2021/01/18 01:31:17;;;;;;;15.47;12.97;;;;;;;-0.42;100.00;96278.25;1037143;28;20048;-63
2021/01/18 01:31:47;;;;;;;20.03;12.67;;;;;;;-0.44;100.00;96280.97;1039846;28;20029;-64
2021/01/18 01:32:18;;;;;;;16.77;12.57;;;;;;;-0.45;100.00;96274.22;1039747;28;20469;-64
2021/01/18 01:32:50;;;;;;;17.57;12.00;;;;;;;-0.45;100.00;96273.44;1031521;28;20026;-65
2021/01/18 01:33:20;;;;;;;16.40;12.57;;;;;;;-0.45;100.00;96268.28;1032183;28;20026;-64
2021/01/18 01:33:51;;;;;;;17.00;12.60;;;;;;;-0.45;100.00;96276.81;1035524;28;20053;-64
2021/01/18 01:34:21;;;;;;;15.90;13.43;;;;;;;-0.49;100.00;96273.00;1032047;28;20415;-64
2021/01/18 01:34:52;;;;;;;15.90;12.70;;;;;;;-0.46;100.00;96280.38;1031171;28;20027;-63
2021/01/18 01:35:24;;;;;;;17.97;12.80;;;;;;;-0.45;100.00;96276.00;1027534;28;20512;-64
2021/01/18 01:35:54;;;;;;;19.17;12.35;;;;;;;-0.44;100.00;96280.19;1032302;28;20021;-64
2021/01/18 01:36:25;;;;;;;15.83;12.03;;;;;;;-0.43;100.00;96276.66;1031706;28;20669;-64
2021/01/18 01:36:55;;;;;;;16.73;12.50;;;;;;;-0.46;100.00;96277.81;1036450;28;20022;-63
2021/01/18 01:37:26;;;;;;;19.17;12.33;;;;;;;-0.44;100.00;96275.81;1039927;28;20380;-63
2021/01/18 01:37:56;;;;;;;16.17;12.07;;;;;;;-0.46;100.00;96272.66;1039584;28;20022;-63
2021/01/18 01:38:27;;;;;;;18.30;12.67;;;;;;;-0.47;100.00;96271.03;1043885;28;20019;-62
2021/01/18 01:38:57;;;;;;;17.07;11.93;;;;;;;-0.45;100.00;96274.22;1043984;28;20505;-63
2021/01/18 01:39:28;;;;;;;15.17;12.17;;;;;;;-0.45;100.00;96276.00;1043837;28;20021;-64
2021/01/18 01:39:58;;;;;;;15.77;12.17;;;;;;;-0.46;100.00;96272.66;1044160;28;20398;-63
2021/01/18 01:40:29;;;;;;;17.20;12.50;;;;;;;-0.49;100.00;96268.63;1044453;28;20032;-63
2021/01/18 01:41:00;;;;;;;16.37;11.97;;;;;;;-0.46;100.00;96271.84;1040231;28;20104;-64
2021/01/18 01:41:30;;;;;;;16.48;12.23;;;;;;;-0.49;100.00;96270.41;1032246;28;20014;-64
2021/01/18 01:42:01;;;;;;;16.23;11.87;;;;;;;-0.50;100.00;96269.63;1032374;28;20058;-63
2021/01/18 01:42:32;;;;;;;15.23;11.40;;;;;;;-0.48;100.00;96270.22;1037238;28;20021;-64
2021/01/18 01:43:04;;;;;;;15.98;10.98;;;;;;;-0.54;100.00;96262.41;1037229;28;20030;-64
2021/01/18 01:43:35;;;;;;;17.02;11.25;;;;;;;-0.47;100.00;96265.88;1034224;28;20022;-63
2021/01/18 01:44:06;;;;;;;14.52;11.27;;;;;;;-0.44;100.00;96277.59;1032940;28;20027;-63
2021/01/18 01:44:36;;;;;;;13.43;10.77;;;;;;;-0.45;100.00;96273.44;1031577;28;20553;-64
2021/01/18 01:45:08;;;;;;;14.17;10.73;;;;;;;-0.45;100.00;96274.22;1031506;28;20022;-64
2021/01/18 01:45:39;;;;;;;14.38;10.95;;;;;;;-0.52;100.00;96263.84;1040215;28;20017;-64
2021/01/18 01:46:09;;;;;;;14.77;10.43;;;;;;;-0.40;100.00;96277.09;1039768;28;20105;-64
2021/01/18 01:46:40;;;;;;;15.93;11.77;;;;;;;-0.43;100.00;96268.91;1039560;28;20045;-64
2021/01/18 01:47:10;;;;;;;13.70;10.20;;;;;;;-0.44;100.00;96270.66;1035544;28;20017;-64
2021/01/18 01:47:46;;;;;;;13.40;10.03;;;;;;;-0.53;100.00;96259.69;1027645;28;20030;-63
2021/01/18 01:48:16;;;;;;;11.00;8.95;;;;;;;-0.42;100.00;96268.72;1031578;28;20526;-63
2021/01/18 01:48:47;;;;;;;12.17;10.00;;;;;;;-0.43;100.00;96272.28;1031730;28;20041;-64
2021/01/18 01:49:17;;;;;;;13.37;10.10;;;;;;;-0.44;100.00;96278.41;1027800;28;20393;-64
2021/01/18 01:49:47;;;;;;;13.80;9.93;;;;;;;-0.43;100.00;96281.81;1023558;29;20125;-63
2021/01/18 01:50:30;;;;;;;13.63;10.27;;;;;;;-0.44;100.00;96275.81;1021716;28;20027;-63
2021/01/18 01:51:00;;;;;;;14.77;10.35;;;;;;;-0.48;100.00;96261.69;1036113;28;20518;-64
2021/01/18 01:51:31;;;;;;;13.67;10.20;;;;;;;-0.43;100.00;96271.50;1031624;28;20038;-64
2021/01/18 01:52:01;;;;;;;14.37;11.07;;;;;;;-0.48;100.00;96266.84;1023604;28;20023;-64
2021/01/18 01:52:32;;;;;;;13.00;10.20;;;;;;;-0.43;100.00;96269.72;1023684;29;20019;-65
2021/01/18 01:53:18;;;;;;;14.03;10.70;;;;;;;-0.46;100.00;96264.13;1023499;29;20090;-64
2021/01/18 01:53:48;;;;;;;15.27;11.02;;;;;;;-0.47;100.00;96273.59;1023741;28;20023;-63
2021/01/18 01:54:19;;;;;;;15.50;11.13;;;;;;;-0.49;100.00;96273.78;1027730;28;20697;-63
2021/01/18 01:54:54;;;;;;;14.10;11.07;;;;;;;-0.47;100.00;96271.03;1027216;28;20073;-64
2021/01/18 01:55:27;;;;;;;14.27;10.68;;;;;;;-0.45;100.00;96270.88;1027168;28;20499;-65
2021/01/18 01:55:58;;;;;;;13.93;10.25;;;;;;;-0.50;100.00;96263.69;1027874;28;20039;-65
2021/01/18 01:56:29;;;;;;;13.87;10.53;;;;;;;-0.53;100.00;96258.88;1031808;28;20025;-64
2021/01/18 01:56:59;;;;;;;13.83;10.33;;;;;;;-0.52;100.00;96257.91;1027341;28;20038;-64
2021/01/18 01:57:30;;;;;;;15.10;10.43;;;;;;;-0.52;100.00;96260.47;1023944;29;20591;-64
2021/01/18 01:58:01;;;;;;;14.30;10.40;;;;;;;-0.48;100.00;96264.28;1023571;29;20393;-64
2021/01/18 01:58:32;;;;;;;13.63;9.80;;;;;;;-0.42;100.00;96278.25;1027347;28;20078;-62
2021/01/18 01:59:03;;;;;;;12.20;10.13;;;;;;;-0.49;100.00;96262.69;1027751;28;20058;-63
2021/01/18 01:59:33;;;;;;;13.80;10.40;;;;;;;-0.49;100.00;96263.47;1027539;28;20431;-63
2021/01/18 02:00:09;;;;;;;13.13;10.07;;;;;;;-0.48;100.00;96266.84;1028738;28;20039;-63
2021/01/18 02:00:40;;;;;;;13.47;10.13;;;;;;;-0.42;100.00;96273.88;1036306;28;20065;-64
2021/01/18 02:01:11;;;;;;;12.13;9.93;;;;;;;-0.43;100.00;96277.44;1036488;28;20026;-64
2021/01/18 02:01:41;;;;;;;16.30;11.00;;;;;;;-0.45;100.00;96273.44;1035863;28;20264;-65
2021/01/18 02:02:13;;;;;;;13.27;9.97;;;;;;;-0.54;100.00;96270.97;1035513;28;20692;-64
2021/01/18 02:02:43;;;;;;;12.48;9.73;;;;;;;-0.44;100.00;96275.81;1027671;28;20492;-65
2021/01/18 02:03:25;;;;;;;16.47;10.23;;;;;;;-0.41;100.00;96282.41;1032097;28;20038;-64
2021/01/18 02:03:56;;;;;;;13.10;9.88;;;;;;;-0.44;100.00;96275.81;1035569;28;20666;-65
2021/01/18 02:04:27;;;;;;;14.25;9.98;;;;;;;-0.46;100.00;96277.81;1031731;28;20046;-64
2021/01/18 02:04:57;;;;;;;12.17;9.33;;;;;;;-0.43;100.00;96276.66;1026701;28;20037;-63
2021/01/18 02:05:28;;;;;;;14.60;10.60;;;;;;;-0.46;100.00;96282.16;1027747;28;20097;-64
2021/01/18 02:05:58;;;;;;;13.33;9.80;;;;;;;-0.47;100.00;96283.91;1028197;28;20022;-63
2021/01/18 02:06:29;;;;;;;12.43;9.93;;;;;;;-0.45;100.00;96284.53;1028681;28;20023;-64
2021/01/18 02:06:59;;;;;;;14.03;10.23;;;;;;;-0.48;100.00;96280.53;1031533;28;20027;-64
2021/01/18 02:07:30;;;;;;;12.20;9.33;;;;;;;-0.46;100.00;96277.81;1028105;28;20030;-65
2021/01/18 02:08:01;;;;;;;11.23;9.47;;;;;;;-0.44;100.00;96280.97;1035697;28;20018;-64
2021/01/18 02:08:31;;;;;;;12.32;8.45;;;;;;;-0.50;100.00;96271.41;1031832;28;20018;-63
2021/01/18 02:09:02;;;;;;;11.93;9.13;;;;;;;-0.43;100.00;96286.97;1031560;28;20325;-64
2021/01/18 02:09:32;;;;;;;12.20;9.40;;;;;;;-0.49;100.00;96278.94;1031357;28;20109;-64
2021/01/18 02:10:04;;;;;;;12.23;9.80;;;;;;;-0.54;100.00;96270.97;1030306;28;20030;-64
2021/01/18 02:10:35;;;;;;;12.68;9.10;;;;;;;-0.47;100.00;96281.34;1032098;28;20431;-64
2021/01/18 02:11:06;;;;;;;14.45;9.52;;;;;;;-0.41;100.00;96288.34;1032598;28;20030;-63
2021/01/18 02:11:36;;;;;;;11.70;8.67;;;;;;;-0.41;100.00;96284.97;1032541;28;20025;-63
2021/01/18 02:12:07;;;;;;;10.87;8.57;;;;;;;-0.37;100.00;96291.38;1031906;28;20023;-65
2021/01/18 02:12:37;;;;;;;11.37;8.43;;;;;;;-0.46;100.00;96277.81;1031636;28;20018;-63
2021/01/18 02:13:17;;;;;;;10.97;8.60;;;;;;;-0.39;100.00;96294.13;1027658;28;20019;-64
2021/01/18 02:14:35;;;;;;;12.43;8.95;;;;;;;-0.41;100.00;96296.09;1023444;29;20030;-64
2021/01/18 02:15:12;;;;;;;10.45;7.57;;;;;;;-0.41;100.00;96290.94;1033208;28;20029;-63
2021/01/18 02:16:03;;;;;;;13.00;8.13;;;;;;;-0.40;100.00;96300.28;1031808;28;20022;-61
2021/01/18 02:16:58;;;;;;;11.93;7.97;;;;;;;-0.41;100.00;96295.28;1036275;28;20526;-64
2021/01/18 02:17:53;;;;;;;11.38;8.10;;;;;;;-0.43;100.00;96297.28;1035955;28;20542;-62
2021/01/18 02:18:45;;;;;;;12.13;7.82;;;;;;;-0.43;100.00;96302.44;1035633;28;20025;-63
2021/01/18 02:19:42;;;;;;;11.95;7.97;;;;;;;-0.43;100.00;96295.50;1039676;28;20025;-64
2021/01/18 02:20:45;;;;;;;11.48;8.07;;;;;;;-0.42;100.00;96304.00;1037748;28;20415;-63
2021/01/18 02:21:33;;;;;;;9.52;7.32;;;;;;;-0.45;100.00;96304.38;1035763;28;20442;-64
2021/01/18 02:22:34;;;;;;;13.65;8.50;;;;;;;-0.46;100.00;96310.50;1037897;28;20032;-64
2021/01/18 02:23:16;;;;;;;14.98;8.02;;;;;;;-0.41;100.00;96308.97;1040652;28;20505;-64
2021/01/18 02:24:22;;;;;;;10.75;6.72;;;;;;;-0.43;100.00;96313.53;1035183;28;20034;-63
2021/01/18 02:25:06;;;;;;;12.00;7.32;;;;;;;-0.42;100.00;96314.31;1034659;28;20542;-63
2021/01/18 02:25:48;;;;;;;11.43;7.72;;;;;;;-0.43;100.00;96308.38;1033382;28;20161;-62
2021/01/18 02:26:49;;;;;;;13.73;8.43;;;;;;;-0.42;100.00;96316.91;1035542;28;20535;-64
2021/01/18 02:27:57;;;;;;;13.70;7.60;;;;;;;-0.42;100.00;96312.53;1035275;28;20136;-64
2021/01/18 02:28:43;;;;;;;10.82;7.45;;;;;;;-0.44;100.00;96318.84;1035273;28;20025;-64